Latest Coastal Weather Observations for Charles Point

IDD60701

Issued at 5:05 pm CST Wednesday 3 September 2014 (issued every 10 minutes, with the page automatically refreshed every 10 minutes)

About coastal observations | Map of coastal stations | Coastal observations for NT | Marine services | Other Formats
Station Details ID: 014031 Name: CHARLES POINT Lat: -12.39 Lon: 130.63 Height: 14.0 m
Data from the previous 72 hours. | See also: Recent months for locations in Northern Territory
Date/Time
CST
Temp

°C
Wind Pressure Rain
since 9am
mm
Weather Cloud Vis
km
Sea
Height
m
Swell
Dir
 
Speed
knots
Gust
knots
hPa Trend Height
m
Period
s
Dir
03/05:00pm 27.1 W 5 9 1012.4 - 0.0 - - - - - - -
03/04:30pm 27.3 WNW 7 9 1012.4 - 0.0 - - - - - - -
03/04:00pm 27.9 WNW 9 11 1012.5 - 0.0 - - - - - - -
03/03:30pm 28.1 WNW 9 13 1012.7 - 0.0 - - - - - - -
03/03:00pm 28.3 WNW 9 11 1013.0 - 0.0 - - - - - - -
03/02:30pm 28.0 WNW 10 13 1013.2 - 0.0 - - - - - - -
03/02:00pm 28.3 WNW 9 12 1013.7 - 0.0 - - - - - - -
03/01:30pm 28.3 WNW 8 11 1014.2 - 0.0 - - - - - - -
03/01:00pm 28.8 WNW 9 11 1014.7 - 0.0 - - - - - - -
03/12:30pm 28.7 NW 6 9 1015.3 - 0.0 - - - - - - -
03/12:00pm 29.0 WNW 6 8 1015.7 - 0.0 - - - - - - -
03/11:30am 27.7 N 3 7 1016.0 - 0.0 - - - - - - -
03/11:00am 27.6 NNE 3 5 1016.4 - 0.0 - - - - - - -
03/10:30am 27.6 S 2 4 1016.6 - 0.0 - - - - - - -
03/10:00am 26.8 S 4 8 1016.9 - 0.0 - - - - - - -
03/09:30am 25.3 S 6 9 1016.9 - 0.0 - - - - - - -
03/09:00am 24.7 S 6 9 1016.8 - 0.0 - - - - - - -
03/08:30am 23.4 S 5 7 1016.6 - 0.0 - - - - - - -
03/08:00am 21.0 S 4 7 1016.3 - 0.0 - - - - - - -
03/07:30am 20.2 S 4 5 1015.6 - 0.0 - - - - - - -
03/07:00am 19.0 S 3 4 1015.2 - 0.0 - - - - - - -
03/06:30am 19.0 S 3 4 1014.8 - 0.0 - - - - - - -
03/06:00am 19.1 S 3 4 1014.4 - 0.0 - - - - - - -
03/05:30am 19.4 S 3 4 1014.3 - 0.0 - - - - - - -
03/05:00am 19.5 S 3 3 1014.1 - 0.0 - - - - - - -
03/04:30am 19.6 S 3 3 1014.0 - 0.0 - - - - - - -
03/04:00am 20.0 S 3 3 1014.1 - 0.0 - - - - - - -
03/03:30am 20.0 SSE 3 4 1014.1 - 0.0 - - - - - - -
03/03:00am 20.0 S 3 4 1014.3 - 0.0 - - - - - - -
03/02:30am 20.4 W 2 3 1014.4 - 0.0 - - - - - - -
03/02:00am 20.6 W 2 3 1014.6 - 0.0 - - - - - - -
03/01:30am 21.3 W 1 2 1015.0 - 0.0 - - - - - - -
03/01:00am 21.9 WSW 1 2 1015.2 - 0.0 - - - - - - -
03/12:30am 22.4 W 2 3 1015.5 - 0.0 - - - - - - -
03/12:00am 23.3 W 2 4 1015.8 - 0.0 - - - - - - -
 
Date/Time
CST
Temp

°C
Wind Pressure Rain
since 9am
mm
Weather Cloud Vis
km
Sea
Height
m
Swell
Dir
 
Speed
knots
Gust
knots
hPa Trend Height
m
Period
s
Dir
02/11:30pm 25.2 WNW 6 8 1015.9 - 0.0 - - - - - - -
02/11:00pm 25.6 NW 7 9 1016.0 - 0.0 - - - - - - -
02/10:30pm 25.3 WNW 5 8 1015.8 - 0.0 - - - - - - -
02/10:00pm 25.1 WNW 5 9 1015.4 - 0.0 - - - - - - -
02/09:30pm 24.3 W 4 6 1015.0 - 0.0 - - - - - - -
02/09:00pm 24.4 WSW 3 4 1014.7 - 0.0 - - - - - - -
02/08:30pm 24.4 W 3 7 1014.2 - 0.0 - - - - - - -
02/08:00pm 24.5 SW 4 6 1013.6 - 0.0 - - - - - - -
02/07:30pm 24.2 SW 3 6 1013.2 - 0.0 - - - - - - -
02/07:00pm 24.6 SW 2 3 1012.9 - 0.0 - - - - - - -
02/06:30pm 26.3 N 1 2 1012.5 - 0.0 - - - - - - -
02/06:00pm 27.6 N 2 3 1012.1 - 0.0 - - - - - - -
02/05:30pm 28.1 N 2 3 1012.1 - 0.0 - - - - - - -
02/05:00pm 27.5 N 3 4 1012.0 - 0.0 - - - - - - -
02/04:30pm 27.3 N 5 6 1012.0 - 0.0 - - - - - - -
02/04:00pm 27.6 NNW 5 7 1011.9 - 0.0 - - - - - - -
02/03:30pm 27.8 NNW 5 7 1012.1 - 0.0 - - - - - - -
02/03:00pm 27.7 NNW 6 8 1012.5 - 0.0 - - - - - - -
02/02:30pm 27.6 NNW 6 7 1012.9 - 0.0 - - - - - - -
02/02:00pm 27.4 NW 5 8 1013.2 - 0.0 - - - - - - -
02/01:30pm 27.0 N 7 8 1013.4 - 0.0 - - - - - - -
02/01:00pm 27.1 N 6 7 1013.9 - 0.0 - - - - - - -
02/12:30pm 27.1 N 5 6 1014.4 - 0.0 - - - - - - -
02/12:00pm 27.0 NNW 4 6 1014.9 - 0.0 - - - - - - -
02/11:30am 26.9 NNE 3 4 1015.3 - 0.0 - - - - - - -
02/11:00am 27.3 NE 4 6 1015.8 - 0.0 - - - - - - -
02/10:30am 26.7 NNE 3 4 1015.9 - 0.0 - - - - - - -
02/10:00am 26.4 NE 3 4 1016.0 - 0.0 - - - - - - -
02/09:30am 26.0 NNE 3 4 1015.8 - 0.0 - - - - - - -
02/09:00am 25.2 CALM 0 0 1015.6 - 0.0 - - - - - - -
02/08:30am 24.6 CALM 0 1 1015.4 - 0.0 - - - - - - -
02/08:00am 22.2 SE 1 2 1015.2 - 0.0 - - - - - - -
02/07:30am 19.8 CALM 0 0 1015.1 - 0.0 - - - - - - -
02/07:00am 19.5 SE 1 1 1014.9 - 0.0 - - - - - - -
02/06:30am 20.2 SE 2 2 1014.8 - 0.0 - - - - - - -
02/06:00am 21.5 ESE 2 4 1014.7 - 0.0 - - - - - - -
02/05:30am 21.8 ESE 3 4 1014.6 - 0.0 - - - - - - -
02/05:00am 20.9 SE 2 3 1014.4 - 0.0 - - - - - - -
02/04:30am 21.9 ESE 3 4 1014.3 - 0.0 - - - - - - -
02/04:00am 21.3 SE 2 4 1014.2 - 0.0 - - - - - - -
02/03:30am 21.2 SSE 1 2 1014.1 - 0.0 - - - - - - -
02/03:00am 21.8 SSE 1 2 1014.3 - 0.0 - - - - - - -
02/02:30am 22.2 ESE 1 2 1014.4 - 0.0 - - - - - - -
02/02:00am 22.8 ESE 3 4 1014.4 - 0.0 - - - - - - -
02/01:30am 23.4 E 3 5 1014.6 - 0.0 - - - - - - -
02/01:00am 22.5 S 3 5 1014.5 - 0.0 - - - - - - -
02/12:30am 23.1 S 5 7 1013.9 - 0.0 - - - - - - -
02/12:00am 23.4 S 5 8 1014.0 - 0.0 - - - - - - -
 
Date/Time
CST
Temp

°C
Wind Pressure Rain
since 9am
mm
Weather Cloud Vis
km
Sea
Height
m
Swell
Dir
 
Speed
knots
Gust
knots
hPa Trend Height
m
Period
s
Dir
01/11:30pm 23.4 S 5 8 1014.1 - 0.0 - - - - - - -
01/11:00pm 23.6 S 5 9 1014.1 - 0.0 - - - - - - -
01/10:30pm 23.9 SSW 5 8 1014.0 - 0.0 - - - - - - -
01/10:00pm 24.1 SSW 5 8 1013.8 - 0.0 - - - - - - -
01/09:30pm 24.1 SSW 4 7 1013.8 - 0.0 - - - - - - -
01/09:00pm 24.0 SSW 4 6 1013.4 - 0.0 - - - - - - -
01/08:30pm 23.8 SSW 3 5 1013.1 - 0.0 - - - - - - -
01/08:00pm 23.7 SSW 3 4 1012.8 - 0.0 - - - - - - -
01/07:30pm 24.3 SW 2 4 1012.4 - 0.0 - - - - - - -
01/07:00pm 24.8 SW 2 4 1012.0 - 0.0 - - - - - - -
01/06:30pm 25.8 WSW 3 6 1011.7 - 0.0 - - - - - - -
01/06:00pm 26.8 W 3 7 1011.6 - 0.0 - - - - - - -
01/05:30pm 27.2 W 4 7 1011.5 - 0.0 - - - - - - -
01/05:00pm 27.6 WNW 7 9 1011.3 - 0.0 - - - - - - -
01/04:30pm 28.2 NW 6 8 1011.2 - 0.0 - - - - - - -
01/04:00pm 28.4 NW 5 8 1011.3 - 0.0 - - - - - - -
01/03:30pm 27.8 NNW 6 8 1011.4 - 0.0 - - - - - - -
01/03:00pm 27.7 NNW 6 8 1011.6 - 0.0 - - - - - - -
01/02:30pm 28.0 WNW 7 10 1012.0 - 0.0 - - - - - - -
01/02:00pm 27.6 NNW 6 9 1012.4 - 0.0 - - - - - - -
01/01:30pm 26.7 N 6 7 1013.0 - 0.0 - - - - - - -
01/01:00pm 26.7 N 6 7 1013.5 - 0.0 - - - - - - -
01/12:30pm 26.8 N 4 5 1014.1 - 0.0 - - - - - - -
01/12:00pm 26.9 NE 3 5 1014.6 - 0.0 - - - - - - -
01/11:30am 26.9 NE 3 5 1015.0 - 0.0 - - - - - - -
01/11:00am 26.3 NNE 4 6 1015.3 - 0.0 - - - - - - -
01/10:30am 26.4 NNE 4 6 1015.7 - 0.0 - - - - - - -
01/10:00am 26.2 NE 4 5 1015.8 - 0.0 - - - - - - -
01/09:30am 25.9 NE 5 7 1015.9 - 0.0 - - - - - - -
01/09:00am 26.0 NE 4 6 1015.9 - 0.0 - - - - - - -
01/08:30am 25.9 ENE 3 5 1015.8 - 0.0 - - - - - - -
01/08:00am 25.5 E 3 6 1015.6 - 0.0 - - - - - - -
01/07:30am 25.0 NE 5 8 1015.6 - 0.0 - - - - - - -
01/07:00am 24.8 NE 5 7 1015.3 - 0.0 - - - - - - -
01/06:30am 24.4 NNE 5 7 1014.8 - 0.0 - - - - - - -
01/06:00am 24.2 NNE 5 7 1014.4 - 0.0 - - - - - - -
01/05:30am 20.7 CALM 0 1 1014.2 - 0.0 - - - - - - -
01/05:00am 21.2 N 1 4 1014.0 - 0.0 - - - - - - -
01/04:30am 24.7 N 5 7 1013.6 - 0.0 - - - - - - -
01/04:00am 24.7 NNE 5 7 1013.4 - 0.0 - - - - - - -
01/03:30am 24.5 N 4 6 1013.3 - 0.0 - - - - - - -
01/03:00am 24.4 N 6 9 1013.2 - 0.0 - - - - - - -
01/02:30am 20.5 CALM 0 1 1013.2 - 0.0 - - - - - - -
01/02:00am 20.9 SW 1 2 1013.2 - 0.0 - - - - - - -
01/01:30am 21.8 NNE 3 6 1013.2 - 0.0 - - - - - - -
01/01:00am 21.3 SW 1 3 1013.3 - 0.0 - - - - - - -
01/12:30am 21.6 CALM 0 2 1012.9 - 0.0 - - - - - - -
01/12:00am 22.4 SW 2 4 1012.8 - 0.0 - - - - - - -
 
Date/Time
CST
Temp

°C
Wind Pressure Rain
since 9am
mm
Weather Cloud Vis
km
Sea
Height
m
Swell
Dir
 
Speed
knots
Gust
knots
hPa Trend Height
m
Period
s
Dir
31/11:30pm 22.3 SW 3 5 1012.8 - 0.0 - - - - - - -
31/11:00pm 22.4 SW 3 5 1012.9 - 0.0 - - - - - - -
31/10:30pm 22.3 SW 3 5 1012.9 - 0.0 - - - - - - -
31/10:00pm 22.1 SSW 3 4 1013.0 - 0.0 - - - - - - -
31/09:30pm 22.4 SW 3 5 1013.0 - 0.0 - - - - - - -
31/09:00pm 22.5 SW 2 4 1012.7 - 0.0 - - - - - - -
31/08:30pm 22.7 SW 3 4 1012.5 - 0.0 - - - - - - -
31/08:00pm 23.2 WSW 3 4 1012.1 - 0.0 - - - - - - -
31/07:30pm 23.7 WSW 3 5 1011.7 - 0.0 - - - - - - -
31/07:00pm 24.4 SW 3 5 1011.5 - 0.0 - - - - - - -
31/06:30pm 25.5 W 2 4 1011.2 - 0.0 - - - - - - -
31/06:00pm 26.8 W 4 6 1010.8 - 0.0 - - - - - - -
31/05:30pm 27.4 WNW 5 7 1010.4 - 0.0 - - - - - - -

Other Formats:

Comma delimited format used in spreadsheet applications
http://www.bom.gov.au/fwo/IDD60701/IDD60701.99510.axf

JavaScript Object Notation format (JSON) in row-major order
http://www.bom.gov.au/fwo/IDD60701/IDD60701.99510.json